Aynor, South Carolina
Current Conditions -  °F | °C
As of 6:55 AM on Sunday 21 Dec 2014 (Local Time) from KHYW Reporting Station
Overcast Overcast  
Wind Chill: 41°   Ceiling: 7000
Heat Index: 41°   Visibility: 7mi
Dew Point: 37°   Wind: 3mph
Humidity: 87%   Direction: 10°N
Pressure: 30.25"   Gusts: NA
Location:  34°N, 79.2°W
Report Text: KHYW 211155Z AUTO 01003KT 7SM OVC070 05/03 A3025 RMK AO2
Loading
Personal Weather Stations






























Interactive Weather Map New forecast layout! Learn more

10-Day Weather Forecast

Advertisements
Track Severe Weather on mobile